Joint Base Pearl Harbor Hickam, HI (96853)

6:20 AM HST on November 26, 2014 (GMT -1000)
Ewa | Change Station
CLOSE
Current Station
Personal Weather Station
Location: Ewa Beach, HI
Elevation: 46 ft
Nearby Weather Stations

Elev 46 ft 21.34 °N, 158.03 °W | Updated 32 minutes ago

Scattered Clouds
Scattered Clouds
68.2 °F
Feels Like 68.2 °F
N
3.1
Wind Variable Wind from NNE
Gusts 6.5 mph

Today
High -- | Low -- °F
--% Chance of Precip.
Yesterday
High -- | Low -- °F
Precip. -- in
6:49 AM 5:48 PM
Waxing Crescent, 20% visible
Pressure 30.04 in
Visibility 10.0 miles
Clouds Few 3000 ft
Scattered Clouds 5500 ft
Dew Point 59 °F
Humidity 72%
Rainfall -999.00 in
Snow Depth Not available.
UV 0 out of 12
Pollen Not available.
Air Quality Not available.
Flu Activity Not available.
METAR PHNL 261553Z 03007KT 10SM FEW030 SCT055 22/15 A3004 RMK AO2 SLP170 T02220150

More Conditions Fewer Conditions

Pressure 30.04 in
Visibility 10.0 miles
Clouds Few 3000 ft
Scattered Clouds 5500 ft
Dew Point 59 °F
Humidity 72%
Rainfall -999.00 in
Snow Depth Not available.
UV 0 out of 12
Pollen Not available.
Air Quality Not available.
Flu Activity Not available.
METAR PHNL 261553Z 03007KT 10SM FEW030 SCT055 22/15 A3004 RMK AO2 SLP170 T02220150

More Conditions Fewer Conditions

10-Day Weather Forecast

Almanac

Astronomy

Nov. 26, 2014 Rise Set
Actual Time
Civil Twilight
Nautical Twilight
Astronomical Twilight
Moon
Length of Visible Light
Length of Day
Tomorrow will be .
, % of the Moon is Illuminated

Today's Extremes

State Highs State Lows

Community

WunderPhotos

Upload Photos

1,773,784 photos uploaded!

WunderBlogs® & News

Nearby

Air Quality

  Air Quality AQ Index Pollutant
Not available.

Snow Depth

Station Depth Elevation

Earthquake Activity

City Distance Mag. Time & Date
Minimum magnitude displayed is 2.5.

Coastal Water Temperatures

Place Temperature

Nearby Weather Stations